Leicester Airport


Codes: EGBG/
Name: Leicester Airport
City: Leicester
Country: United Kingdom
Elevation: 469 ft.
Wikipedia:

Photos at Leicester Airport


   Photos courtesy of SpottingLog. You can add your own sightings and photos by signing up for a free trial today.



No photos found.

Weather at Leicester Airport


Time (UTC)DescriptionTempratureWindCloud coverageVisibilityPressureHumidity
21-Feb-2024 03:00Overcast Clouds9°C11 mph, S100%10000m1015hPa90%
21-Feb-2024 06:00Moderate Rain8°C18 mph, S100%9516m1011hPa92%
21-Feb-2024 09:00Moderate Rain8°C22 mph, S100%9990m1004hPa93%
21-Feb-2024 12:00Light Rain9°C25 mph, S100%10000m1000hPa91%
21-Feb-2024 15:00Light Rain10°C18 mph, SW100%2824m996hPa97%
21-Feb-2024 18:00Overcast Clouds9°C16 mph, W100%10000m998hPa86%
21-Feb-2024 21:00Overcast Clouds7°C11 mph, SW88%10000m999hPa89%
22-Feb-2024 00:00Overcast Clouds7°C13 mph, SW85%10000m997hPa94%
22-Feb-2024 03:00Light Rain9°C16 mph, S99%10000m992hPa92%
22-Feb-2024 06:00Light Rain9°C16 mph, S95%10000m987hPa92%
22-Feb-2024 09:00Moderate Rain7°C4 mph, W100%3421m982hPa96%
22-Feb-2024 12:00Heavy Intensity Rain5°C13 mph, NW100%9708m979hPa94%
22-Feb-2024 15:00Moderate Rain4°C18 mph, NW100%10000m980hPa81%
22-Feb-2024 18:00Overcast Clouds3°C16 mph, W86%10000m984hPa80%
22-Feb-2024 21:00Scattered Clouds2°C16 mph, SW41%10000m986hPa82%
23-Feb-2024 00:00Scattered Clouds2°C16 mph, SW28%10000m986hPa88%
23-Feb-2024 03:00Light Rain2°C13 mph, S51%5659m984hPa96%
23-Feb-2024 06:00Moderate Rain1°C13 mph, SW75%10000m985hPa96%
23-Feb-2024 09:00Broken Clouds3°C11 mph, SW68%10000m987hPa88%
23-Feb-2024 12:00Broken Clouds5°C13 mph, SW65%10000m987hPa77%
23-Feb-2024 15:00Light Rain6°C9 mph, SW60%10000m987hPa74%
23-Feb-2024 18:00Light Rain2°C4 mph, SW78%10000m987hPa87%
23-Feb-2024 21:00Overcast Clouds2°C4 mph, SW99%10000m988hPa90%
24-Feb-2024 00:00Overcast Clouds0°C4 mph, SW97%10000m988hPa91%
24-Feb-2024 03:00Scattered Clouds-0°C4 mph, SW25%10000m989hPa92%
24-Feb-2024 06:00Few Clouds-1°C4 mph, S21%10000m990hPa90%
24-Feb-2024 09:00Few Clouds2°C4 mph, S12%10000m991hPa81%
24-Feb-2024 12:00Scattered Clouds6°C4 mph, SW28%10000m993hPa68%
24-Feb-2024 15:00Few Clouds7°C4 mph, W15%10000m994hPa64%
24-Feb-2024 18:00Few Clouds2°C4 mph, W14%10000m996hPa82%
24-Feb-2024 21:00Clear Sky1°C4 mph, W10%10000m998hPa88%
25-Feb-2024 00:00Clear Sky1°C4 mph, W10%10000m998hPa89%
25-Feb-2024 03:00Clear Sky0°C4 mph, SW6%10000m999hPa92%
25-Feb-2024 06:00Clear Sky-0°C4 mph, S7%10000m998hPa92%
25-Feb-2024 09:00Broken Clouds2°C4 mph, SE55%10000m998hPa83%
25-Feb-2024 12:00Broken Clouds6°C9 mph, SE78%10000m997hPa74%
25-Feb-2024 15:00Overcast Clouds6°C11 mph, E100%10000m995hPa79%
25-Feb-2024 18:00Overcast Clouds4°C13 mph, E100%10000m994hPa89%
25-Feb-2024 21:00Light Rain4°C16 mph, E100%10000m993hPa91%
26-Feb-2024 00:00Light Rain4°C20 mph, E100%4059m991hPa96%